createdAt,value
2023-05-16T00:00:34.182Z,99.99
2023-05-16T00:01:34.262Z,99.99
2023-05-16T00:02:34.409Z,99.99
2023-05-16T00:03:34.441Z,99.99
2023-05-16T00:04:34.165Z,99.99
2023-05-16T00:05:34.047Z,99.99
2023-05-16T00:06:33.915Z,99.99
2023-05-16T00:07:34.055Z,99.99
2023-05-16T00:08:33.823Z,99.99
2023-05-16T00:09:35.095Z,99.99
2023-05-16T00:10:33.764Z,99.99
2023-05-16T00:11:33.693Z,99.99
2023-05-16T00:12:33.680Z,99.99
2023-05-16T00:13:33.694Z,99.99
2023-05-16T00:14:33.559Z,99.99
2023-05-16T00:15:33.706Z,99.99
2023-05-16T00:16:33.535Z,99.99
2023-05-16T00:17:33.495Z,99.99
2023-05-16T00:18:33.557Z,99.99
2023-05-16T00:19:33.342Z,99.99
2023-05-16T00:20:33.682Z,99.99
2023-05-16T00:21:33.664Z,99.99
2023-05-16T00:22:33.223Z,99.99
2023-05-16T00:23:33.174Z,99.99
2023-05-16T00:24:33.363Z,99.99
2023-05-16T00:25:33.140Z,99.99
2023-05-16T00:26:33.188Z,99.99
2023-05-16T00:27:33.068Z,99.99
2023-05-16T00:28:33.012Z,99.99
2023-05-16T00:29:33.000Z,99.99
2023-05-16T00:30:32.866Z,99.99
2023-05-16T00:31:33.229Z,99.99
2023-05-16T00:32:32.839Z,99.99
2023-05-16T00:33:32.733Z,99.99
2023-05-16T00:34:32.775Z,99.99
2023-05-16T00:35:32.880Z,99.99
2023-05-16T00:36:32.615Z,99.99
2023-05-16T00:37:32.843Z,99.99
2023-05-16T00:38:32.548Z,99.99
2023-05-16T00:39:32.470Z,99.99
2023-05-16T00:40:32.823Z,99.99
2023-05-16T00:41:32.377Z,99.99
2023-05-16T00:42:32.473Z,99.99
2023-05-16T00:43:32.333Z,99.99
2023-05-16T00:44:32.496Z,99.99
2023-05-16T00:45:32.229Z,99.99
2023-05-16T00:46:32.378Z,99.99
2023-05-16T00:47:32.128Z,99.99
2023-05-16T00:48:32.319Z,99.99
2023-05-16T00:49:32.182Z,99.99
2023-05-16T00:50:31.988Z,99.99
2023-05-16T00:51:31.941Z,99.99
2023-05-16T00:52:32.179Z,99.99
2023-05-16T00:53:31.854Z,99.99
2023-05-16T00:54:31.957Z,99.99
2023-05-16T00:55:31.796Z,99.99
2023-05-16T00:56:31.725Z,99.99
2023-05-16T00:57:31.774Z,99.99
2023-05-16T00:58:31.635Z,99.99
2023-05-16T00:59:33.010Z,99.99
2023-05-16T01:00:31.554Z,99.99
2023-05-16T01:01:31.547Z,99.99
2023-05-16T01:02:31.612Z,99.99
2023-05-16T01:03:32.794Z,99.99
2023-05-16T01:04:31.661Z,99.99
2023-05-16T01:05:31.425Z,99.99
2023-05-16T01:06:31.290Z,99.99
2023-05-16T01:07:31.250Z,99.99
2023-05-16T01:08:32.253Z,99.99
2023-05-16T01:09:31.166Z,99.99
2023-05-16T01:10:31.258Z,99.99
2023-05-16T01:11:31.079Z,99.99
2023-05-16T01:12:31.079Z,99.99
2023-05-16T01:13:31.022Z,99.99
2023-05-16T01:14:31.077Z,99.99
2023-05-16T01:15:30.904Z,99.99
2023-05-16T01:16:31.466Z,99.99
2023-05-16T01:17:30.853Z,99.99
2023-05-16T01:18:30.789Z,99.99
2023-05-16T01:19:30.968Z,99.99
2023-05-16T01:20:30.665Z,99.99
2023-05-16T01:21:30.710Z,99.99
2023-05-16T01:22:30.635Z,99.99
2023-05-16T01:23:30.721Z,99.99
2023-05-16T01:24:30.494Z,99.99
2023-05-16T01:25:30.738Z,99.99
2023-05-16T01:26:30.449Z,99.99
2023-05-16T01:27:30.558Z,99.99
2023-05-16T01:28:30.416Z,99.99
2023-05-16T01:29:30.276Z,99.99
2023-05-16T01:30:30.253Z,99.99
2023-05-16T01:31:30.387Z,99.99
2023-05-16T01:32:30.159Z,99.99
2023-05-16T01:33:30.192Z,99.99
2023-05-16T01:34:30.055Z,99.99
2023-05-16T01:35:30.195Z,99.99
2023-05-16T01:36:30.377Z,99.99
2023-05-16T01:37:30.006Z,99.99
2023-05-16T01:38:29.927Z,99.99
2023-05-16T01:39:30.030Z,99.99
2023-05-16T01:40:30.033Z,99.99
2023-05-16T01:41:29.767Z,99.99
2023-05-16T01:42:29.836Z,99.99
2023-05-16T01:43:29.902Z,99.99
2023-05-16T01:44:29.854Z,99.99
2023-05-16T01:45:29.840Z,99.99
2023-05-16T01:46:29.588Z,99.99
2023-05-16T01:47:29.710Z,99.99
2023-05-16T01:48:29.529Z,99.99
2023-05-16T01:49:29.682Z,99.99
2023-05-16T01:50:29.370Z,99.99
2023-05-16T01:51:29.317Z,99.99
2023-05-16T01:52:29.270Z,99.99
2023-05-16T01:53:29.309Z,99.99
2023-05-16T01:54:29.222Z,99.99
2023-05-16T01:55:29.523Z,99.99
2023-05-16T01:56:29.101Z,99.99
2023-05-16T01:57:29.053Z,99.99
2023-05-16T01:58:29.634Z,99.99
2023-05-16T01:59:29.086Z,99.99
2023-05-16T02:00:28.922Z,99.99
2023-05-16T02:01:29.001Z,99.99
2023-05-16T02:02:29.055Z,99.99
2023-05-16T02:03:29.012Z,99.99
2023-05-16T02:04:28.748Z,99.99
2023-05-16T02:05:29.083Z,99.99
2023-05-16T02:06:28.686Z,99.99
2023-05-16T02:07:29.819Z,99.99
2023-05-16T02:08:28.594Z,99.99
2023-05-16T02:09:28.815Z,99.99
2023-05-16T02:10:28.494Z,99.99
2023-05-16T02:11:28.625Z,99.99
2023-05-16T02:12:28.687Z,99.99
2023-05-16T02:13:28.644Z,99.99
2023-05-16T02:14:28.337Z,99.99
2023-05-16T02:15:28.750Z,99.99
2023-05-16T02:16:28.266Z,99.99
2023-05-16T02:17:28.485Z,99.99
2023-05-16T02:18:28.424Z,99.99
2023-05-16T02:19:28.117Z,99.99
2023-05-16T02:20:28.075Z,99.99
2023-05-16T02:21:28.297Z,99.99
2023-05-16T02:22:27.970Z,99.99
2023-05-16T02:23:28.097Z,99.99
2023-05-16T02:24:27.876Z,99.99
2023-05-16T02:25:28.005Z,99.99
2023-05-16T02:26:27.913Z,99.99
2023-05-16T02:27:27.770Z,99.99
2023-05-16T02:28:27.922Z,99.99
2023-05-16T02:29:27.782Z,99.99
2023-05-16T02:30:27.645Z,99.99
2023-05-16T02:31:27.791Z,99.99
2023-05-16T02:32:27.792Z,99.99
2023-05-16T02:33:27.489Z,99.99
2023-05-16T02:34:27.564Z,99.99
2023-05-16T02:35:27.771Z,99.99
2023-05-16T02:36:27.366Z,99.99
2023-05-16T02:37:27.439Z,99.99
2023-05-16T02:38:27.389Z,99.99
2023-05-16T02:39:27.250Z,99.99
2023-05-16T02:40:27.398Z,99.99
2023-05-16T02:41:27.408Z,99.99
2023-05-16T02:42:27.110Z,99.99
2023-05-16T02:43:27.219Z,99.99
2023-05-16T02:44:27.091Z,99.99
2023-05-16T02:45:27.677Z,99.99
2023-05-16T02:46:26.928Z,99.99
2023-05-16T02:47:26.917Z,99.99
2023-05-16T02:48:26.843Z,99.99
2023-05-16T02:49:27.061Z,99.99
2023-05-16T02:50:26.751Z,99.99
2023-05-16T02:51:26.859Z,99.99
2023-05-16T02:52:26.655Z,99.99
2023-05-16T02:53:27.083Z,99.99
2023-05-16T02:54:26.576Z,99.99
2023-05-16T02:55:26.692Z,99.99
2023-05-16T02:56:26.530Z,99.99
2023-05-16T02:57:26.713Z,99.99
2023-05-16T02:58:26.509Z,99.99
2023-05-16T02:59:26.360Z,99.99
2023-05-16T03:00:26.938Z,99.99
2023-05-16T03:01:26.303Z,99.99
2023-05-16T03:02:26.406Z,99.99
2023-05-16T03:03:26.288Z,99.99
2023-05-16T03:04:26.345Z,99.99
2023-05-16T03:05:27.147Z,99.99
2023-05-16T03:06:26.170Z,99.99
2023-05-16T03:07:26.004Z,99.99
2023-05-16T03:08:26.172Z,99.99
2023-05-16T03:09:26.183Z,99.99
2023-05-16T03:10:25.873Z,99.99
2023-05-16T03:11:26.026Z,99.99
2023-05-16T03:12:26.040Z,99.99
2023-05-16T03:13:26.017Z,99.99
2023-05-16T03:14:25.701Z,99.99
2023-05-16T03:15:25.734Z,99.99
2023-05-16T03:16:25.860Z,99.99
2023-05-16T03:17:25.629Z,99.99
2023-05-16T03:18:25.678Z,99.99
2023-05-16T03:19:25.751Z,99.99
2023-05-16T03:20:25.438Z,99.99
2023-05-16T03:21:25.408Z,99.99
2023-05-16T03:22:25.463Z,99.99
2023-05-16T03:23:25.306Z,99.99
2023-05-16T03:24:25.564Z,99.99
2023-05-16T03:25:25.527Z,99.99
2023-05-16T03:26:25.171Z,99.99
2023-05-16T03:27:25.302Z,99.99
2023-05-16T03:28:25.131Z,99.99
2023-05-16T03:29:25.381Z,99.99
2023-05-16T03:30:25.028Z,99.99
2023-05-16T03:31:25.104Z,99.99
2023-05-16T03:32:24.996Z,99.99
2023-05-16T03:33:25.144Z,99.99
2023-05-16T03:34:24.834Z,99.99
2023-05-16T03:35:26.340Z,99.99
2023-05-16T03:36:24.763Z,99.99
2023-05-16T03:37:25.015Z,99.99
2023-05-16T03:38:24.759Z,99.99
2023-05-16T03:39:24.607Z,99.99
2023-05-16T03:40:24.801Z,99.99
2023-05-16T03:41:24.527Z,99.99
2023-05-16T03:42:24.506Z,99.99
2023-05-16T03:43:24.438Z,99.99
2023-05-16T03:44:24.633Z,99.99
2023-05-16T03:45:24.460Z,99.99
2023-05-16T03:46:24.465Z,99.99
2023-05-16T03:47:24.548Z,99.99
2023-05-16T03:48:24.267Z,99.99
2023-05-16T03:49:24.461Z,99.99
2023-05-16T03:50:24.172Z,99.99
2023-05-16T03:51:24.234Z,99.99
2023-05-16T03:52:24.045Z,99.99
2023-05-16T03:53:24.262Z,99.99
2023-05-16T03:54:23.951Z,99.99
2023-05-16T03:55:24.097Z,99.99
2023-05-16T03:56:23.892Z,99.99
2023-05-16T03:57:24.286Z,99.99
2023-05-16T03:58:23.798Z,99.99
2023-05-16T03:59:23.740Z,99.99
2023-05-16T04:00:23.696Z,99.99
2023-05-16T04:01:23.926Z,99.99
2023-05-16T04:02:23.860Z,99.99
2023-05-16T04:03:23.752Z,99.99
2023-05-16T04:04:23.510Z,99.99
2023-05-16T04:05:23.523Z,99.99
2023-05-16T04:06:23.549Z,99.99
2023-05-16T04:07:24.017Z,99.99
2023-05-16T04:08:23.542Z,99.99
2023-05-16T04:09:23.303Z,99.99
2023-05-16T04:10:23.251Z,99.99
2023-05-16T04:11:23.212Z,99.99
2023-05-16T04:12:23.367Z,99.99
2023-05-16T04:13:23.190Z,99.99
2023-05-16T04:14:23.386Z,99.99
2023-05-16T04:15:23.069Z,99.99
2023-05-16T04:16:23.028Z,99.99
2023-05-16T04:17:23.235Z,99.99
2023-05-16T04:18:22.918Z,99.99
2023-05-16T04:19:23.134Z,99.99
2023-05-16T04:20:22.853Z,99.99
2023-05-16T04:21:22.770Z,99.99
2023-05-16T04:22:22.737Z,99.99
2023-05-16T04:23:22.893Z,99.99
2023-05-16T04:24:23.173Z,99.99
2023-05-16T04:25:23.100Z,99.99
2023-05-16T04:26:22.582Z,99.99
2023-05-16T04:27:22.553Z,99.99
2023-05-16T04:28:22.487Z,99.99
2023-05-16T04:29:23.726Z,99.99
2023-05-16T04:30:22.385Z,99.99
2023-05-16T04:31:22.389Z,99.99
2023-05-16T04:32:22.727Z,99.99
2023-05-16T04:33:22.258Z,99.99
2023-05-16T04:34:22.509Z,99.99
2023-05-16T04:35:22.202Z,99.99
2023-05-16T04:36:23.344Z,99.99
2023-05-16T04:37:22.079Z,99.99
2023-05-16T04:38:22.050Z,99.99
2023-05-16T04:39:21.998Z,99.99
2023-05-16T04:40:23.373Z,99.99
2023-05-16T04:41:21.908Z,99.99
2023-05-16T04:42:22.081Z,99.99
2023-05-16T04:43:21.817Z,99.99
2023-05-16T04:44:22.900Z,99.99
2023-05-16T04:45:21.765Z,99.99
2023-05-16T04:46:22.042Z,99.99
2023-05-16T04:47:21.747Z,99.99
2023-05-16T04:48:21.748Z,99.99
2023-05-16T04:49:22.020Z,99.99
2023-05-16T04:50:21.518Z,99.99
2023-05-16T04:51:21.514Z,99.99
2023-05-16T04:52:21.454Z,99.99
2023-05-16T04:53:21.636Z,99.99
2023-05-16T04:54:21.339Z,99.99
2023-05-16T04:55:21.301Z,99.99
2023-05-16T04:56:25.770Z,99.99
2023-05-16T04:57:21.251Z,99.99
2023-05-16T04:58:21.459Z,99.99
2023-05-16T04:59:21.125Z,99.99
2023-05-16T05:00:21.087Z,99.99
2023-05-16T05:01:21.352Z,99.86
2023-05-16T05:02:21.286Z,99.99
2023-05-16T05:03:21.030Z,99.99
2023-05-16T05:04:23.399Z,99.96
2023-05-16T05:05:20.979Z,99.99
2023-05-16T05:06:20.850Z,99.99
2023-05-16T05:07:21.937Z,99.67
2023-05-16T05:08:20.732Z,99.76
2023-05-16T05:09:21.014Z,99.67
2023-05-16T05:10:20.644Z,99.76
2023-05-16T05:11:20.602Z,99.76
2023-05-16T05:12:20.790Z,99.67
2023-05-16T05:13:41.647Z,99.99
2023-05-16T05:14:20.513Z,99.96
2023-05-16T05:15:20.429Z,99.99
2023-05-16T05:16:21.584Z,99.99
2023-05-16T05:17:20.371Z,99.99
2023-05-16T05:18:20.621Z,99.99
2023-05-16T05:19:20.296Z,99.99
2023-05-16T05:20:20.591Z,99.99
2023-05-16T05:21:20.201Z,99.99
2023-05-16T05:22:20.455Z,99.99
2023-05-16T05:23:20.089Z,99.99
2023-05-16T05:24:20.225Z,99.99
2023-05-16T05:25:19.990Z,99.99
2023-05-16T05:26:21.251Z,99.67
2023-05-16T05:27:19.921Z,99.99
2023-05-16T05:28:19.862Z,99.99
2023-05-16T05:29:19.821Z,99.99
2023-05-16T05:30:20.057Z,99.52
2023-05-16T05:31:19.798Z,98.86
2023-05-16T05:32:19.871Z,98.95
2023-05-16T05:33:20.129Z,98.86
2023-05-16T05:34:19.610Z,99.05
2023-05-16T05:35:19.909Z,98.66
2023-05-16T05:36:19.516Z,99.24
2023-05-16T05:37:20.719Z,99.72
2023-05-16T05:38:19.432Z,99.24
2023-05-16T05:39:19.547Z,99.15
2023-05-16T05:40:19.338Z,99.15
2023-05-16T05:41:19.517Z,98.76
2023-05-16T05:42:19.267Z,99.72
2023-05-16T05:43:19.435Z,99.62
2023-05-16T05:44:19.172Z,99.72
2023-05-16T05:45:19.242Z,99.99
2023-05-16T05:46:19.136Z,99.99
2023-05-16T05:47:19.255Z,99.99
2023-05-16T05:48:18.998Z,99.99
2023-05-16T05:49:19.087Z,99.91
2023-05-16T05:50:18.928Z,99.72
2023-05-16T05:51:18.900Z,99.72
2023-05-16T05:52:18.892Z,99.81
2023-05-16T05:53:18.780Z,99.52
2023-05-16T05:54:18.897Z,99.62
2023-05-16T05:55:18.751Z,99.81
2023-05-16T05:56:18.705Z,99.81
2023-05-16T05:57:18.633Z,99.81
2023-05-16T05:58:18.755Z,99.52
2023-05-16T05:59:18.530Z,99.99
2023-05-16T06:03:51.117Z,99.52
2023-05-16T06:04:47.222Z,99.72
2023-05-16T06:05:47.282Z,99.52
2023-05-16T06:06:47.060Z,99.33
2023-05-16T06:07:47.265Z,99.72
2023-05-16T06:08:46.969Z,99.72
2023-05-16T06:09:47.070Z,99.62
2023-05-16T06:10:46.884Z,99.52
2023-05-16T06:11:46.885Z,99.72
2023-05-16T06:12:46.804Z,99.72
2023-05-16T06:13:47.919Z,99.99
2023-05-16T06:14:46.717Z,99.99
2023-05-16T06:15:46.711Z,99.05
2023-05-16T06:16:46.640Z,99.10
2023-05-16T06:17:46.786Z,99.77
2023-05-16T06:18:46.568Z,99.87
2023-05-16T06:19:47.974Z,99.77
2023-05-16T06:20:46.451Z,99.67
2023-05-16T06:21:46.553Z,99.10
2023-05-16T06:22:46.368Z,99.00
2023-05-16T06:23:46.560Z,99.19
2023-05-16T06:24:46.272Z,99.58
2023-05-16T06:25:46.369Z,98.81
2023-05-16T06:26:46.417Z,98.05
2023-05-16T06:27:46.383Z,98.52
2023-05-16T06:28:46.104Z,98.62
2023-05-16T06:29:46.065Z,98.24
2023-05-16T06:30:46.037Z,98.71
2023-05-16T06:31:47.161Z,98.52
2023-05-16T06:32:45.978Z,98.33
2023-05-16T06:33:46.330Z,99.19
2023-05-16T06:34:45.851Z,98.91
2023-05-16T06:35:45.813Z,99.99
2023-05-16T06:36:45.938Z,99.99
2023-05-16T06:37:45.731Z,99.99
2023-05-16T06:38:45.765Z,99.99
2023-05-16T06:39:45.667Z,99.99
2023-05-16T06:40:45.767Z,99.99
2023-05-16T06:41:45.548Z,99.99
2023-05-16T06:42:45.569Z,99.99
2023-05-16T06:43:45.474Z,99.99
2023-05-16T06:44:46.614Z,99.99
2023-05-16T06:45:45.450Z,99.99
2023-05-16T06:46:45.382Z,99.99
2023-05-16T06:47:45.349Z,99.99
2023-05-16T06:48:45.429Z,99.99
2023-05-16T06:49:45.207Z,99.99
2023-05-16T06:50:45.245Z,99.99
2023-05-16T06:51:45.154Z,99.99
2023-05-16T06:52:45.289Z,99.99
2023-05-16T06:53:45.031Z,99.99
2023-05-16T06:54:45.063Z,99.99
2023-05-16T06:55:44.948Z,99.99
2023-05-16T06:56:45.062Z,99.99
2023-05-16T06:57:44.913Z,99.99
2023-05-16T06:58:44.814Z,99.99
2023-05-16T06:59:44.773Z,99.99
2023-05-16T07:00:44.894Z,99.99
2023-05-16T07:01:44.771Z,99.99
2023-05-16T07:02:44.834Z,99.99
2023-05-16T07:03:44.845Z,99.99
2023-05-16T07:04:44.556Z,99.99
2023-05-16T07:05:45.745Z,99.99
2023-05-16T07:06:44.525Z,99.99
2023-05-16T07:07:44.534Z,99.99
2023-05-16T07:08:44.428Z,99.99
2023-05-16T07:09:44.542Z,99.99
2023-05-16T07:10:45.434Z,99.99
2023-05-16T07:11:44.363Z,99.99
2023-05-16T07:12:44.241Z,99.99
2023-05-16T07:13:44.373Z,99.99
2023-05-16T07:14:44.127Z,99.99
2023-05-16T07:15:44.085Z,99.99
2023-05-16T07:16:44.132Z,99.99
2023-05-16T07:17:44.428Z,99.99
2023-05-16T07:18:44.037Z,99.99
2023-05-16T07:19:44.005Z,99.99
2023-05-16T07:20:43.909Z,99.99
2023-05-16T07:21:45.095Z,99.99
2023-05-16T07:22:44.840Z,99.99
2023-05-16T07:23:43.772Z,99.99
2023-05-16T07:24:43.837Z,99.99
2023-05-16T07:25:44.943Z,99.99
2023-05-16T07:26:43.850Z,99.99
2023-05-16T07:27:43.571Z,99.99
2023-05-16T07:28:43.721Z,99.99
2023-05-16T07:29:43.514Z,99.99
2023-05-16T07:30:43.680Z,99.99
2023-05-16T07:31:43.435Z,99.99
2023-05-16T07:32:43.409Z,99.99
2023-05-16T07:33:43.317Z,99.99
2023-05-16T07:34:43.705Z,99.99
2023-05-16T07:35:43.267Z,99.99
2023-05-16T07:36:44.330Z,99.99
2023-05-16T07:37:43.144Z,99.99
2023-05-16T07:38:43.113Z,99.99
2023-05-16T07:39:43.115Z,99.99
2023-05-16T07:40:43.066Z,99.87
2023-05-16T07:41:44.158Z,99.99
2023-05-16T07:42:42.930Z,99.99
2023-05-16T07:43:42.952Z,99.99
2023-05-16T07:44:42.838Z,99.96
2023-05-16T07:45:43.008Z,99.99
2023-05-16T07:46:43.299Z,99.99
2023-05-16T07:47:43.828Z,98.43
2023-05-16T07:48:42.731Z,98.52
2023-05-16T07:49:42.805Z,98.52
2023-05-16T07:50:42.589Z,97.56
2023-05-16T07:51:42.598Z,96.61
2023-05-16T07:52:42.741Z,96.70
2023-05-16T07:53:42.607Z,96.13
2023-05-16T07:54:42.662Z,95.65
2023-05-16T07:55:42.625Z,95.22
2023-05-16T07:56:42.323Z,95.70
2023-05-16T07:58:03.531Z,95.79
2023-05-16T07:58:42.248Z,96.66
2023-05-16T07:59:42.242Z,96.08
2023-05-16T08:00:42.256Z,96.84
2023-05-16T08:01:42.257Z,95.79
2023-05-16T08:02:42.285Z,95.84
2023-05-16T08:03:49.812Z,95.36
2023-05-16T08:04:41.991Z,95.65
2023-05-16T08:05:42.115Z,96.03
2023-05-16T08:06:41.899Z,96.03
2023-05-16T08:07:41.854Z,95.46
2023-05-16T08:08:42.922Z,95.27
2023-05-16T08:09:41.791Z,94.60
2023-05-16T08:10:42.948Z,94.60
2023-05-16T08:11:41.776Z,94.79
2023-05-16T08:12:41.729Z,94.98
2023-05-16T08:13:41.593Z,94.60
2023-05-16T08:14:41.756Z,93.07
2023-05-16T08:15:41.517Z,93.26
2023-05-16T08:16:41.799Z,93.35
2023-05-16T08:17:41.486Z,94.02
2023-05-16T08:18:41.408Z,93.26
2023-05-16T08:19:41.343Z,93.26
2023-05-16T08:20:41.383Z,93.26
2023-05-16T08:21:41.253Z,93.54
2023-05-16T08:22:41.556Z,93.40
2023-05-16T08:23:41.415Z,93.59
2023-05-16T08:24:41.215Z,92.92
2023-05-16T08:25:41.079Z,92.35
2023-05-16T08:26:42.239Z,92.44
2023-05-16T08:27:40.998Z,92.44
2023-05-16T08:28:41.009Z,92.44
2023-05-16T08:29:41.051Z,92.44
2023-05-16T08:30:42.778Z,91.58
2023-05-16T08:31:40.885Z,91.58
2023-05-16T08:32:40.897Z,91.39
2023-05-16T08:33:40.905Z,91.39
2023-05-16T08:34:40.867Z,90.62
2023-05-16T08:35:40.690Z,89.86
2023-05-16T08:36:41.749Z,88.90
2023-05-16T08:37:40.564Z,88.80
2023-05-16T08:38:40.561Z,89.86
2023-05-16T08:39:41.725Z,89.57
2023-05-16T08:40:40.564Z,88.90
2023-05-16T08:41:40.420Z,88.76
2023-05-16T08:42:40.384Z,89.52
2023-05-16T08:43:42.568Z,90.05
2023-05-16T08:44:40.266Z,90.09
2023-05-16T08:45:40.336Z,89.81
2023-05-16T08:46:40.238Z,89.43
2023-05-16T08:47:40.181Z,89.62
2023-05-16T08:48:40.115Z,89.62
2023-05-16T08:49:40.366Z,90.86
2023-05-16T08:50:40.026Z,90.86
2023-05-16T08:51:41.195Z,90.86
2023-05-16T08:52:39.931Z,90.96
2023-05-16T08:53:39.891Z,90.19
2023-05-16T08:54:41.015Z,90.86
2023-05-16T08:55:40.033Z,90.24
2023-05-16T08:56:40.846Z,88.95
2023-05-16T08:57:39.735Z,88.71
2023-05-16T08:58:39.818Z,88.71
2023-05-16T08:59:39.630Z,89.19
2023-05-16T09:00:43.128Z,88.71
2023-05-16T09:01:39.637Z,89.48
2023-05-16T09:02:40.893Z,88.62
2023-05-16T09:03:39.492Z,88.81
2023-05-16T09:04:39.597Z,88.90
2023-05-16T09:05:39.375Z,88.62
2023-05-16T09:06:40.599Z,89.09
2023-05-16T09:07:39.308Z,88.81
2023-05-16T09:08:39.682Z,88.90
2023-05-16T09:09:39.231Z,88.81
2023-05-16T09:10:39.194Z,88.71
2023-05-16T09:11:40.332Z,88.23
2023-05-16T09:12:39.111Z,88.90
2023-05-16T09:13:39.113Z,88.71
2023-05-16T09:14:39.037Z,88.43
2023-05-16T09:15:39.155Z,89.19
2023-05-16T09:16:38.987Z,89.19
2023-05-16T09:17:39.996Z,88.90
2023-05-16T09:18:38.898Z,88.62
2023-05-16T09:19:40.085Z,89.38
2023-05-16T09:20:38.731Z,90.63
2023-05-16T09:21:38.985Z,92.88
2023-05-16T09:22:40.884Z,93.84
2023-05-16T09:23:38.787Z,93.16
2023-05-16T09:24:38.566Z,94.50
2023-05-16T09:25:39.617Z,95.46
2023-05-16T09:26:38.558Z,96.51
2023-05-16T09:27:39.688Z,97.04
2023-05-16T09:28:38.451Z,98.47
2023-05-16T09:29:38.663Z,99.62
2023-05-16T09:30:38.298Z,99.99
2023-05-16T09:31:38.561Z,99.99
2023-05-16T09:32:38.317Z,99.99
2023-05-16T09:33:38.174Z,99.99
2023-05-16T09:34:38.241Z,99.99
2023-05-16T09:35:45.129Z,99.99
2023-05-16T09:36:38.265Z,99.99
2023-05-16T09:37:38.008Z,99.99
2023-05-16T09:38:38.063Z,99.99
2023-05-16T09:39:37.909Z,99.99
2023-05-16T09:40:39.113Z,99.99
2023-05-16T09:41:37.816Z,99.99
2023-05-16T09:42:39.117Z,99.99
2023-05-16T09:43:38.287Z,99.99
2023-05-16T09:44:37.701Z,99.99
2023-05-16T09:45:37.659Z,99.99
2023-05-16T09:46:37.760Z,99.99
2023-05-16T09:47:37.599Z,99.99
2023-05-16T09:48:37.726Z,99.99
2023-05-16T09:49:37.488Z,99.99
2023-05-16T09:50:37.449Z,99.99
2023-05-16T09:51:37.391Z,99.99
2023-05-16T09:52:37.555Z,99.99
2023-05-16T09:53:37.313Z,99.99
2023-05-16T09:54:37.571Z,99.99
2023-05-16T09:55:37.247Z,99.99
2023-05-16T09:56:37.171Z,99.99
2023-05-16T09:57:38.230Z,99.99
2023-05-16T09:58:37.088Z,99.99
2023-05-16T09:59:38.218Z,99.99
2023-05-16T10:00:37.461Z,99.99
2023-05-16T10:01:37.227Z,99.99
2023-05-16T10:02:36.984Z,99.99
2023-05-16T10:03:37.169Z,99.99
2023-05-16T10:04:36.825Z,99.99
2023-05-16T10:05:37.038Z,99.99
2023-05-16T10:06:36.769Z,99.99
2023-05-16T10:07:36.688Z,99.99
2023-05-16T10:08:37.352Z,99.99
2023-05-16T10:09:37.067Z,99.99
2023-05-16T10:10:36.564Z,99.99
2023-05-16T10:11:36.688Z,99.99
2023-05-16T10:12:36.465Z,99.99
2023-05-16T10:13:36.419Z,99.99
2023-05-16T10:14:36.384Z,99.99
2023-05-16T10:15:36.561Z,99.99
2023-05-16T10:16:36.384Z,99.99
2023-05-16T10:17:36.303Z,99.99
2023-05-16T10:18:37.422Z,99.99
2023-05-16T10:19:37.341Z,99.99
2023-05-16T10:20:36.130Z,99.99
2023-05-16T10:21:37.357Z,99.99
2023-05-16T10:22:36.040Z,99.99
2023-05-16T10:23:37.382Z,99.99
2023-05-16T10:24:36.222Z,99.99
2023-05-16T10:25:35.910Z,99.99
2023-05-16T10:26:36.991Z,99.99
2023-05-16T10:27:35.836Z,99.99
2023-05-16T10:28:36.415Z,99.99
2023-05-16T10:29:46.437Z,98.24
2023-05-16T10:30:35.755Z,99.19
2023-05-16T10:31:35.715Z,99.10
2023-05-16T10:32:35.831Z,97.75
2023-05-16T10:33:35.563Z,97.80
2023-05-16T10:34:37.041Z,97.52
2023-05-16T10:35:35.489Z,98.96
2023-05-16T10:36:35.498Z,98.00
2023-05-16T10:37:35.405Z,98.00
2023-05-16T10:38:35.838Z,96.84
2023-05-16T10:39:35.311Z,94.12
2023-05-16T10:40:35.446Z,93.30
2023-05-16T10:41:35.235Z,93.73
2023-05-16T10:42:35.211Z,94.12
2023-05-16T10:43:35.266Z,93.78
2023-05-16T10:44:35.318Z,93.49
2023-05-16T10:45:35.338Z,91.57
2023-05-16T10:46:35.114Z,88.12
2023-05-16T10:47:35.116Z,87.21
2023-05-16T10:48:34.945Z,86.07
2023-05-16T10:49:35.127Z,87.02
2023-05-16T10:50:34.887Z,87.94
2023-05-16T10:51:36.161Z,88.32
2023-05-16T10:52:34.781Z,88.99
2023-05-16T10:53:34.767Z,88.03
2023-05-16T10:54:34.696Z,89.18
2023-05-16T10:55:34.947Z,90.91
2023-05-16T10:56:34.714Z,88.90
2023-05-16T10:57:34.783Z,88.99
2023-05-16T10:58:34.562Z,88.99
2023-05-16T10:59:34.487Z,91.10
2023-05-16T11:00:35.685Z,91.96
2023-05-16T11:01:34.419Z,90.43
2023-05-16T11:02:34.936Z,91.77
2023-05-16T11:03:34.404Z,90.62
2023-05-16T11:04:34.399Z,89.57
2023-05-16T11:05:34.229Z,89.66
2023-05-16T11:06:34.477Z,88.61
2023-05-16T11:07:34.153Z,89.86
2023-05-16T11:08:34.421Z,88.99
2023-05-16T11:09:34.063Z,89.62
2023-05-16T11:10:34.084Z,88.76
2023-05-16T11:11:33.984Z,88.56
2023-05-16T11:12:34.050Z,89.90
2023-05-16T11:13:33.897Z,91.25
2023-05-16T11:14:34.476Z,90.96
2023-05-16T11:15:33.824Z,90.96
2023-05-16T11:16:33.830Z,90.67
2023-05-16T11:17:33.755Z,91.63
2023-05-16T11:18:35.964Z,90.77
2023-05-16T11:19:33.641Z,90.48
2023-05-16T11:20:35.941Z,91.05
2023-05-16T11:21:33.553Z,91.58
2023-05-16T11:22:33.765Z,91.30
2023-05-16T11:23:54.600Z,92.73
2023-05-16T11:24:33.464Z,92.73
2023-05-16T11:25:33.540Z,93.35
2023-05-16T11:26:33.387Z,92.25
2023-05-16T11:27:33.306Z,92.06
2023-05-16T11:28:33.253Z,92.63
2023-05-16T11:29:34.578Z,92.63
2023-05-16T11:30:33.180Z,92.92
2023-05-16T11:31:35.430Z,93.30
2023-05-16T11:32:33.242Z,93.98
2023-05-16T11:33:33.038Z,95.12
2023-05-16T11:34:33.179Z,94.93
2023-05-16T11:35:32.955Z,95.70
2023-05-16T11:36:33.194Z,94.84
2023-05-16T11:37:33.050Z,95.36
2023-05-16T11:38:53.914Z,94.89
2023-05-16T11:39:32.849Z,94.60
2023-05-16T11:40:33.033Z,95.56
2023-05-16T11:41:32.704Z,96.80
2023-05-16T11:42:32.831Z,95.61
2023-05-16T11:43:32.612Z,97.13
2023-05-16T11:44:32.900Z,97.47
2023-05-16T11:45:32.549Z,97.56
2023-05-16T11:46:32.711Z,97.80
2023-05-16T11:47:32.529Z,97.52
2023-05-16T11:48:36.469Z,98.28
2023-05-16T11:49:32.357Z,98.38
2023-05-16T11:50:32.413Z,98.75
2023-05-16T11:51:34.745Z,98.57
2023-05-16T11:52:32.307Z,98.85
2023-05-16T11:53:32.297Z,99.71
2023-05-16T11:54:32.147Z,99.38
2023-05-16T11:55:41.375Z,98.33
2023-05-16T11:56:32.239Z,97.42
2023-05-16T11:57:32.122Z,97.99
2023-05-16T11:58:33.413Z,98.14
2023-05-16T11:59:32.148Z,98.81
2023-05-16T12:00:31.870Z,98.24
2023-05-16T12:01:31.883Z,97.56
2023-05-16T12:02:31.905Z,95.94
2023-05-16T12:03:32.034Z,96.42
2023-05-16T12:04:31.840Z,95.46
2023-05-16T12:05:32.191Z,95.56
2023-05-16T12:06:31.618Z,96.61
2023-05-16T12:07:32.212Z,96.32
2023-05-16T12:08:31.534Z,95.46
2023-05-16T12:09:31.533Z,94.31
2023-05-16T12:10:31.625Z,94.21
2023-05-16T12:11:31.413Z,94.50
2023-05-16T12:12:31.627Z,94.31
2023-05-16T12:13:31.312Z,94.89
2023-05-16T12:14:32.665Z,95.17
2023-05-16T12:15:31.535Z,95.32
2023-05-16T12:16:31.462Z,95.65
2023-05-16T12:17:31.214Z,96.32
2023-05-16T12:18:31.169Z,96.80
2023-05-16T12:19:31.145Z,98.52
2023-05-16T12:20:31.273Z,96.51
2023-05-16T12:21:30.974Z,97.18
2023-05-16T12:22:33.132Z,98.33
2023-05-16T12:23:31.281Z,98.33
2023-05-16T12:24:30.904Z,98.28
2023-05-16T12:25:32.169Z,97.75
2023-05-16T12:26:30.823Z,97.75
2023-05-16T12:27:31.016Z,97.66
2023-05-16T12:28:30.710Z,97.08
2023-05-16T12:29:30.692Z,96.42
2023-05-16T12:30:31.140Z,96.42
2023-05-16T12:31:32.277Z,96.99
2023-05-16T12:32:30.729Z,97.18
2023-05-16T12:33:30.572Z,98.52
2023-05-16T12:34:30.665Z,97.95
2023-05-16T12:35:30.728Z,97.47
2023-05-16T12:36:30.473Z,96.61
2023-05-16T12:37:30.286Z,96.80
2023-05-16T12:38:31.406Z,96.89
2023-05-16T12:39:30.184Z,96.89
2023-05-16T12:40:30.551Z,96.94
2023-05-16T12:41:30.126Z,96.08
2023-05-16T12:42:30.315Z,95.31
2023-05-16T12:43:30.540Z,95.07
2023-05-16T12:44:31.143Z,95.31
2023-05-16T12:45:29.933Z,95.22
2023-05-16T12:46:29.999Z,95.51
2023-05-16T12:47:29.874Z,95.61
2023-05-16T12:48:29.943Z,96.47
2023-05-16T12:49:30.065Z,96.37
2023-05-16T12:50:31.054Z,95.31
2023-05-16T12:51:29.671Z,94.65
2023-05-16T12:52:29.622Z,94.36
2023-05-16T12:53:29.773Z,93.21
2023-05-16T12:54:29.585Z,92.25
2023-05-16T12:55:29.801Z,92.16